Latest Weather Observations for Portland Harbour

IDV60801

Issued at 8:31 am EST Monday 3 August 2015 (issued every 30 minutes, with the page automatically refreshed every 10 minutes)

About weather observations | Map of weather stations | Latest weather observations for VIC | Other Formats
Station Details ID: 090192 Name: PORTLAND NTC AWS Lat: -38.34 Lon: 141.61 Height: 0.0 m
Data from the previous 72 hours. | See also: Recent months for locations in Victoria
Date/Time
EST
Temp
°C
App
Temp
°C
Dew
Point
Rel
Hum
%
Delta-T
°C
Wind Press
QNH
hPa
Press
MSL
hPa
Rain
since 9 am
mm
Dir
 
Spd
km/h
Gust
km/h
Spd
kts
Gust
kts
03/08:30am 9.0 - - - - SSW 33 50 18 27 1018.5 1018.5 -
03/08:24am 9.1 - - - - SSW 32 50 17 27 1018.5 1018.5 -
03/08:00am 9.3 - - - - SW 35 52 19 28 1017.9 1017.9 -
03/07:31am 9.0 - - - - SSW 33 57 18 31 1017.2 1017.2 -
03/07:30am 8.9 - - - - SSW 33 52 18 28 1017.2 1017.2 -
03/07:06am 9.2 - - - - SW 32 50 17 27 1016.8 1016.8 -
03/07:00am 8.9 - - - - SW 30 44 16 24 1016.7 1016.7 -
03/06:32am 8.6 - - - - SW 39 63 21 34 1016.3 1016.3 -
03/06:30am 8.4 - - - - SW 37 54 20 29 1016.1 1016.1 -
03/06:07am 8.7 - - - - SW 32 57 17 31 1015.9 1015.9 -
03/06:00am 9.0 - - - - SW 33 48 18 26 1015.4 1015.4 -
03/05:38am 8.2 - - - - SW 35 54 19 29 1015.2 1015.2 -
03/05:30am 8.0 - - - - SSW 41 57 22 31 1015.2 1015.2 -
03/05:00am 8.3 - - - - SW 44 67 24 36 1014.6 1014.6 -
03/04:36am 9.1 - - - - SW 41 61 22 33 1014.1 1014.1 -
03/04:30am 8.7 - - - - SW 39 54 21 29 1013.9 1013.9 -
03/04:04am 8.9 - - - - WSW 41 65 22 35 1013.6 1013.6 -
03/04:00am 9.0 - - - - SW 41 56 22 30 1013.5 1013.5 -
03/03:45am 7.5 - - - - WSW 54 93 29 50 1013.5 1013.5 -
03/03:38am 9.7 - - - - WSW 44 93 24 50 1013.3 1013.3 -
03/03:30am 9.8 - - - - WSW 39 61 21 33 1013.0 1013.0 -
03/03:02am 9.2 - - - - WSW 37 57 20 31 1013.1 1013.1 -
03/03:00am 8.9 - - - - WSW 39 57 21 31 1013.0 1013.0 -
03/02:30am 10.0 - - - - WSW 37 57 20 31 1012.4 1012.4 -
03/02:00am 9.3 - - - - WSW 44 65 24 35 1012.5 1012.5 -
03/01:30am 9.7 - - - - WSW 43 61 23 33 1012.1 1012.1 -
03/01:00am 10.0 - - - - WSW 43 74 23 40 1012.1 1012.1 -
03/12:30am 10.4 - - - - WSW 35 54 19 29 1011.7 1011.7 -
03/12:02am 9.5 - - - - WSW 43 63 23 34 1011.6 1011.6 -
03/12:00am 9.4 - - - - WSW 43 57 23 31 1011.6 1011.6 -
 
Date/Time
EST
Temp
°C
App
Temp
°C
Dew
Point
Rel
Hum
%
Delta-T
°C
Wind Press
QNH
hPa
Press
MSL
hPa
Rain
since 9 am
mm
Dir
 
Spd
km/h
Gust
km/h
Spd
kts
Gust
kts
02/11:30pm 9.2 - - - - WSW 43 70 23 38 1011.6 1011.6 -
02/11:03pm 10.2 - - - - WSW 33 54 18 29 1011.3 1011.3 -
02/11:00pm 10.1 - - - - WSW 35 52 19 28 1011.4 1011.4 -
02/10:30pm 9.8 - - - - W 37 57 20 31 1011.6 1011.6 -
02/10:00pm 10.6 - - - - W 39 67 21 36 1011.3 1011.3 -
02/09:46pm 10.6 - - - - W 37 59 20 32 1011.1 1011.1 -
02/09:30pm 9.8 - - - - W 32 46 17 25 1011.3 1011.3 -
02/09:00pm 9.2 - - - - WSW 44 76 24 41 1011.5 1011.5 -
02/08:52pm 10.2 - - - - W 39 76 21 41 1011.3 1011.3 -
02/08:37pm 11.0 - - - - W 33 54 18 29 1010.8 1010.8 -
02/08:30pm 10.7 - - - - W 28 44 15 24 1010.9 1010.9 -
02/08:00pm 10.4 - - - - W 35 57 19 31 1010.9 1010.9 -
02/07:30pm 9.8 - - - - W 33 52 18 28 1010.9 1010.9 -
02/07:00pm 9.9 - - - - W 32 54 17 29 1010.8 1010.8 -
02/06:39pm 10.1 - - - - W 33 57 18 31 1010.9 1010.9 -
02/06:30pm 10.3 - - - - W 33 52 18 28 1010.6 1010.6 -
02/06:00pm 9.9 - - - - W 33 57 18 31 1010.6 1010.6 -
02/05:30pm 10.5 - - - - W 37 61 20 33 1010.2 1010.2 -
02/05:00pm 10.9 - - - - WSW 37 57 20 31 1010.0 1010.0 -
02/04:31pm 11.0 - - - - WSW 35 56 19 30 1009.9 1009.9 -
02/04:30pm 11.0 - - - - WSW 35 50 19 27 1010.0 1010.0 -
02/04:00pm 11.0 - - - - WSW 35 57 19 31 1009.9 1009.9 -
02/03:30pm 11.6 - - - - WSW 37 56 20 30 1009.6 1009.6 -
02/03:00pm 11.1 - - - - WSW 35 56 19 30 1009.4 1009.4 -
02/02:30pm 11.1 - - - - WSW 37 59 20 32 1009.6 1009.6 -
02/02:05pm 10.3 - - - - WSW 33 54 18 29 1009.2 1009.2 -
02/02:00pm 10.2 - - - - WSW 33 50 18 27 1009.2 1009.2 -
02/01:31pm 10.6 - - - - W 32 54 17 29 1009.0 1009.0 -
02/01:30pm 10.6 - - - - W 32 46 17 25 1009.0 1009.0 -
02/01:00pm 10.2 - - - - WSW 39 59 21 32 1009.4 1009.4 -
02/12:30pm 9.5 - - - - W 41 63 22 34 1009.7 1009.7 -
02/12:17pm 10.3 - - - - W 46 69 25 37 1010.0 1010.0 -
02/12:00pm 12.6 - - - - W 44 72 24 39 1009.2 1009.2 -
02/11:37am 12.8 - - - - WNW 44 74 24 40 1009.4 1009.4 -
02/11:30am 12.6 - - - - WNW 43 61 23 33 1009.5 1009.5 -
02/11:14am 11.9 - - - - WNW 33 52 18 28 1009.8 1009.8 -
02/11:00am 11.5 - - - - WNW 32 48 17 26 1010.0 1010.0 -
02/10:45am 10.4 - - - - NW 28 46 15 25 1010.3 1010.3 -
02/10:30am 10.1 - - - - NW 24 37 13 20 1010.5 1010.5 -
02/10:00am 10.2 - - - - NW 26 44 14 24 1010.5 1010.5 -
02/09:30am 9.1 - - - - NW 20 32 11 17 1011.0 1011.0 -
02/09:00am 8.6 - - - - NW 24 35 13 19 1011.0 1011.0 -
02/08:30am 8.3 - - - - NNW 20 32 11 17 1011.0 1011.0 -
02/08:00am 8.0 - - - - NW 20 32 11 17 1011.2 1011.2 -
02/07:30am 7.8 - - - - NW 22 35 12 19 1011.2 1011.2 -
02/07:00am 7.8 - - - - NW 22 37 12 20 1011.0 1011.0 -
02/06:30am 8.0 - - - - NNW 20 32 11 17 1011.0 1011.0 -
02/06:00am 7.7 - - - - NNW 19 28 10 15 1011.4 1011.4 -
02/05:30am 8.0 - - - - NNW 22 33 12 18 1011.4 1011.4 -
02/05:00am 7.9 - - - - NNW 19 24 10 13 1011.9 1011.9 -
02/04:30am 8.2 - - - - NW 17 28 9 15 1012.3 1012.3 -
02/04:00am 7.7 - - - - NNW 22 33 12 18 1012.3 1012.3 -
02/03:30am 7.7 - - - - NW 13 22 7 12 1012.9 1012.9 -
02/03:00am 7.7 - - - - NNW 17 24 9 13 1013.0 1013.0 -
02/02:30am 7.8 - - - - NW 15 20 8 11 1013.4 1013.4 -
02/02:00am 7.7 - - - - NNW 13 19 7 10 1013.7 1013.7 -
02/01:30am 7.8 - - - - NW 17 20 9 11 1013.9 1013.9 -
02/01:00am 8.0 - - - - NW 11 19 6 10 1014.1 1014.1 -
02/12:30am 7.8 - - - - NNW 19 22 10 12 1014.4 1014.4 -
02/12:00am 8.0 - - - - NNW 17 20 9 11 1014.5 1014.5 -
 
Date/Time
EST
Temp
°C
App
Temp
°C
Dew
Point
Rel
Hum
%
Delta-T
°C
Wind Press
QNH
hPa
Press
MSL
hPa
Rain
since 9 am
mm
Dir
 
Spd
km/h
Gust
km/h
Spd
kts
Gust
kts
01/11:30pm 8.3 - - - - NNW 19 28 10 15 1014.7 1014.7 -
01/11:00pm 7.9 - - - - WNW 15 22 8 12 1015.2 1015.2 -
01/10:30pm 8.2 - - - - NW 13 20 7 11 1015.3 1015.3 -
01/10:00pm 8.5 - - - - NW 13 20 7 11 1015.3 1015.3 -
01/09:30pm 8.3 - - - - WNW 9 15 5 8 1015.4 1015.4 -
01/09:00pm 8.1 - - - - NW 9 15 5 8 1015.3 1015.3 -
01/08:30pm 8.4 - - - - NNW 15 19 8 10 1015.3 1015.3 -
01/08:00pm 8.5 - - - - NW 13 19 7 10 1015.3 1015.3 -
01/07:30pm 8.6 - - - - NNW 15 20 8 11 1015.3 1015.3 -
01/07:00pm 8.9 - - - - NNW 17 22 9 12 1015.1 1015.1 -
01/06:30pm 9.3 - - - - WNW 7 15 4 8 1015.2 1015.2 -
01/06:00pm 9.7 - - - - NW 6 9 3 5 1014.9 1014.9 -
01/05:30pm 9.9 - - - - WNW 9 13 5 7 1014.9 1014.9 -
01/05:00pm 10.2 - - - - W 15 20 8 11 1014.9 1014.9 -
01/04:30pm 10.5 - - - - W 19 28 10 15 1014.6 1014.6 -
01/04:00pm 10.7 - - - - W 19 26 10 14 1014.6 1014.6 -
01/03:30pm 10.8 - - - - W 20 30 11 16 1014.2 1014.2 -
01/03:00pm 11.0 - - - - W 22 33 12 18 1013.9 1013.9 -
01/02:30pm 10.9 - - - - WSW 15 24 8 13 1014.0 1014.0 -
01/02:00pm 10.6 - - - - WSW 22 32 12 17 1014.4 1014.4 -
01/01:30pm 11.4 - - - - WSW 20 30 11 16 1014.2 1014.2 -
01/01:00pm 11.2 - - - - SW 26 35 14 19 1014.6 1014.6 -
01/12:30pm 11.7 - - - - WSW 24 33 13 18 1014.8 1014.8 -
01/12:00pm 11.2 - - - - WSW 19 35 10 19 1014.6 1014.6 -
01/11:30am 11.0 - - - - WSW 19 26 10 14 1014.8 1014.8 -
01/11:00am 10.8 - - - - WSW 20 33 11 18 1014.7 1014.7 -
01/10:30am 10.6 - - - - SW 24 33 13 18 1014.7 1014.7 -
01/10:00am 10.5 - - - - SW 17 28 9 15 1014.4 1014.4 -
01/09:30am 10.3 - - - - SW 19 24 10 13 1014.4 1014.4 -
01/09:00am 10.1 - - - - SW 19 32 10 17 1013.9 1013.9 -
01/08:30am 10.1 - - - - SW 15 26 8 14 1013.1 1013.1 -
01/08:00am 9.8 - - - - SW 19 26 10 14 1012.5 1012.5 -
01/07:30am 9.8 - - - - SW 22 30 12 16 1012.0 1012.0 -
01/07:00am 10.1 - - - - SW 26 39 14 21 1011.3 1011.3 -
01/06:30am 10.3 - - - - SW 22 32 12 17 1010.8 1010.8 -
01/06:00am 9.9 - - - - SW 17 24 9 13 1010.2 1010.2 -
01/05:30am 9.2 - - - - WSW 19 28 10 15 1009.7 1009.7 -
01/05:00am 9.3 - - - - SW 24 33 13 18 1009.4 1009.4 -
01/04:30am 9.2 - - - - SW 33 46 18 25 1008.7 1008.7 -
01/04:00am 9.9 - - - - SW 33 54 18 29 1008.0 1008.0 -
01/03:35am 10.7 - - - - W 30 61 16 33 1007.5 1007.5 -
01/03:34am 10.7 - - - - W 28 61 15 33 1007.5 1007.5 -
01/03:30am 11.4 - - - - W 22 35 12 19 1007.0 1007.0 -
01/03:14am 12.3 - - - - NW 39 78 21 42 1006.5 1006.5 -
01/03:12am 12.3 - - - - NW 37 78 20 42 1006.3 1006.3 -
01/03:10am 12.3 - - - - NW 35 78 19 42 1006.0 1006.0 -
01/03:01am 12.1 - - - - NW 28 50 15 27 1006.0 1006.0 -
01/03:00am 12.1 - - - - NW 26 50 14 27 1006.0 1006.0 -
01/02:58am 12.1 - - - - NW 28 50 15 27 1006.0 1006.0 -
01/02:30am 12.0 - - - - NNW 28 35 15 19 1005.9 1005.9 -
01/02:00am 11.7 - - - - NNW 28 39 15 21 1006.1 1006.1 -
01/01:30am 11.3 - - - - NNW 28 39 15 21 1006.4 1006.4 -
01/01:00am 12.1 - - - - NNW 32 43 17 23 1006.8 1006.8 -
01/12:31am 12.1 - - - - NNW 32 50 17 27 1007.2 1007.2 -
01/12:30am 12.1 - - - - NNW 32 43 17 23 1007.2 1007.2 -
01/12:00am 11.9 - - - - NNW 32 46 17 25 1007.8 1007.8 -
 
Date/Time
EST
Temp
°C
App
Temp
°C
Dew
Point
Rel
Hum
%
Delta-T
°C
Wind Press
QNH
hPa
Press
MSL
hPa
Rain
since 9 am
mm
Dir
 
Spd
km/h
Gust
km/h
Spd
kts
Gust
kts
31/11:30pm 11.6 - - - - NNW 30 43 16 23 1008.4 1008.4 -
31/11:00pm 11.3 - - - - NNW 30 37 16 20 1009.0 1009.0 -
31/10:30pm 10.9 - - - - NNW 30 46 16 25 1009.0 1009.0 -
31/10:00pm 10.6 - - - - NNW 28 33 15 18 1010.1 1010.1 -
31/09:30pm 10.6 - - - - NNW 28 37 15 20 1010.7 1010.7 -
31/09:00pm 10.4 - - - - NNW 24 32 13 17 1011.0 1011.0 -
31/08:30pm 10.3 - - - - NNW 26 32 14 17 1011.4 1011.4 -
31/08:00pm 10.3 - - - - N 26 32 14 17 1011.4 1011.4 -
31/07:30pm 10.3 - - - - NNW 19 24 10 13 1012.9 1012.9 -
31/07:00pm 10.2 - - - - NNW 19 28 10 15 1013.1 1013.1 -
31/06:30pm 10.2 - - - - NNW 19 28 10 15 1013.4 1013.4 -
31/06:00pm 10.1 - - - - NNW 20 30 11 16 1013.6 1013.6 -
31/05:30pm 10.1 - - - - NW 19 24 10 13 1013.9 1013.9 -
31/05:00pm 10.4 - - - - NW 17 30 9 16 1014.2 1014.2 -
31/04:30pm 10.7 - - - - NW 15 24 8 13 1014.1 1014.1 -
31/04:00pm 10.9 - - - - NW 22 32 12 17 1014.3 1014.3 -
31/03:30pm 10.9 - - - - NNW 24 33 13 18 1014.5 1014.5 -
31/03:00pm 10.6 - - - - NNW 30 39 16 21 1014.5 1014.5 -
31/02:30pm 10.7 - - - - NNW 30 41 16 22 1015.1 1015.1 -
31/02:00pm 10.4 - - - - NW 24 35 13 19 1015.8 1015.8 -
31/01:30pm 10.6 - - - - NNW 20 30 11 16 1016.3 1016.3 -
31/01:00pm 10.6 - - - - NW 26 35 14 19 1016.8 1016.8 -
31/12:30pm 10.6 - - - - NW 20 32 11 17 1017.7 1017.7 -
31/12:00pm 10.5 - - - - NW 22 32 12 17 1018.4 1018.4 -
31/11:30am 10.7 - - - - NNW 24 33 13 18 1019.0 1019.0 -
31/11:00am 10.1 - - - - NNW 20 28 11 15 1019.3 1019.3 -
31/10:30am 9.8 - - - - NNW 19 28 10 15 1019.6 1019.6 -
31/10:00am 9.2 - - - - NNW 22 28 12 15 1019.6 1019.6 -
31/09:30am 8.6 - - - - NNW 19 22 10 12 1019.6 1019.6 -
31/09:00am 8.3 - - - - NNW 17 24 9 13 1019.7 1019.7 -

Other Formats:

Comma delimited format used in spreadsheet applications
http://www.bom.gov.au/fwo/IDV60801/IDV60801.95826.axf

JavaScript Object Notation format (JSON) in row-major order
http://www.bom.gov.au/fwo/IDV60801/IDV60801.95826.json